Time;durP1;ratioP1;P1;durP2;ratioP2;P2;SDS_P1;SDS_P2;PMS_P1;PMS_P2;Temp;Humidity;BMP_temperature;BMP_pressure;BME280_temperature;BME280_humidity;BME280_pressure;Samples;Min_cycle;Max_cycle;Signal;HPM_P1;HPM_P2
2023/10/06 00:00:50;;;;;;;8.83;3.80;;;8.80;1.00;;;;;;5009493;28;20418;-81
2023/10/06 00:03:16;;;;;;;25.93;6.50;;;8.70;1.00;;;;;;5016058;28;20423;-80
2023/10/06 00:05:44;;;;;;;21.03;5.93;;;8.70;1.00;;;;;;5012190;28;20942;-80
2023/10/06 00:08:31;;;;;;;19.57;6.17;;;8.60;1.00;;;;;;5008271;28;20472;-80
2023/10/06 00:11:11;;;;;;;10.30;4.70;;;8.70;1.00;;;;;;5012544;28;20814;-81
2023/10/06 00:13:38;;;;;;;10.87;5.10;;;8.70;1.00;;;;;;5013510;28;20446;-80
2023/10/06 00:16:23;;;;;;;15.80;4.47;;;8.70;1.00;;;;;;5015383;28;20451;-80
2023/10/06 00:18:56;;;;;;;9.13;4.13;;;8.70;1.00;;;;;;5013002;28;20428;-80
2023/10/06 00:21:23;;;;;;;18.73;5.23;;;8.70;1.00;;;;;;5015124;28;20420;-80
2023/10/06 00:24:28;;;;;;;46.90;22.23;;;8.70;1.20;;;;;;5009945;28;20784;-80
2023/10/06 00:27:46;;;;;;;16.77;5.20;;;8.60;1.70;;;;;;4995681;28;20559;-81
2023/10/06 00:30:20;;;;;;;81.50;46.97;;;8.60;2.10;;;;;;4995181;28;20500;-80
2023/10/06 00:33:05;;;;;;;14.07;4.70;;;8.60;1.20;;;;;;5011491;28;20803;-81
2023/10/06 00:35:48;;;;;;;7.73;4.83;;;8.60;1.00;;;;;;5013446;28;20942;-82
2023/10/06 00:38:17;;;;;;;18.13;5.23;;;8.60;1.00;;;;;;5011975;28;20427;-81
2023/10/06 00:40:54;;;;;;;17.77;5.40;;;8.60;1.40;;;;;;5010797;28;20454;-80
2023/10/06 00:44:05;;;;;;;18.87;4.30;;;8.50;1.20;;;;;;5012438;28;20434;-81
2023/10/06 00:46:31;;;;;;;11.30;5.07;;;8.60;1.00;;;;;;5015841;28;20450;-81
2023/10/06 00:49:04;;;;;;;9.73;4.20;;;8.50;1.00;;;;;;5014780;28;20934;-80
2023/10/06 00:51:35;;;;;;;21.37;5.23;;;8.60;1.00;;;;;;5014815;28;20199;-80
2023/10/06 00:54:05;;;;;;;9.37;4.50;;;8.50;1.00;;;;;;5014329;28;20435;-80
2023/10/06 00:56:32;;;;;;;6.40;4.20;;;8.50;1.00;;;;;;5014713;28;20981;-80
2023/10/06 00:59:04;;;;;;;12.17;5.63;;;8.40;1.00;;;;;;5014610;28;20430;-80
2023/10/06 01:01:35;;;;;;;16.40;5.60;;;8.40;1.00;;;;;;5007128;28;20930;-81
2023/10/06 01:04:01;;;;;;;19.33;4.43;;;8.40;1.00;;;;;;4999975;28;21115;-80
2023/10/06 01:06:54;;;;;;;13.43;4.00;;;8.40;1.00;;;;;;5006351;28;20445;-80
2023/10/06 01:10:07;;;;;;;14.00;3.90;;;8.40;1.00;;;;;;5012750;28;20173;-80
2023/10/06 01:13:18;;;;;;;13.90;5.43;;;8.40;1.00;;;;;;5011564;28;21013;-80
2023/10/06 01:15:49;;;;;;;17.30;5.53;;;8.40;1.00;;;;;;5011198;28;20560;-80
2023/10/06 01:18:35;;;;;;;7.30;4.33;;;8.40;1.00;;;;;;5015646;28;20416;-81
2023/10/06 01:21:17;;;;;;;13.13;5.60;;;8.30;1.00;;;;;;5018627;28;20415;-81
2023/10/06 01:24:03;;;;;;;12.10;4.83;;;8.40;1.00;;;;;;5012351;28;20440;-81
2023/10/06 01:26:35;;;;;;;8.90;4.67;;;8.40;1.00;;;;;;5015624;28;21016;-81
2023/10/06 01:29:05;;;;;;;10.60;5.00;;;8.20;1.00;;;;;;5018019;28;20796;-81
2023/10/06 01:31:39;;;;;;;12.33;4.53;;;8.20;1.00;;;;;;5017646;28;20466;-81
2023/10/06 01:34:07;;;;;;;20.03;7.60;;;8.20;1.00;;;;;;5011429;28;20435;-80
2023/10/06 01:37:05;;;;;;;10.93;4.73;;;8.10;1.00;;;;;;5025798;28;20427;-80
2023/10/06 01:39:42;;;;;;;9.90;4.73;;;8.10;1.00;;;;;;5016895;28;20431;-80
2023/10/06 01:42:17;;;;;;;21.50;8.53;;;8.20;1.00;;;;;;5006551;28;20439;-80
2023/10/06 01:45:14;;;;;;;24.30;6.00;;;8.30;1.00;;;;;;5022891;28;20414;-80
2023/10/06 01:50:41;;;;;;;17.70;4.83;;;8.10;1.00;;;;;;5017283;28;20805;-80
2023/10/06 01:53:16;;;;;;;7.30;4.60;;;8.20;1.00;;;;;;5014392;28;20998;-80
2023/10/06 01:55:51;;;;;;;19.00;9.27;;;8.00;1.00;;;;;;5024373;28;20416;-79
2023/10/06 01:58:17;;;;;;;12.27;5.80;;;8.00;1.00;;;;;;5013137;28;20407;-80
2023/10/06 02:00:53;;;;;;;14.30;4.90;;;8.20;1.00;;;;;;5026655;28;20490;-80
2023/10/06 02:07:11;;;;;;;20.80;6.27;;;8.00;1.00;;;;;;5011245;28;20431;-80
2023/10/06 02:09:43;;;;;;;18.30;6.97;;;8.00;1.00;;;;;;5011532;28;20424;-80
2023/10/06 02:12:23;;;;;;;30.93;8.20;;;8.00;1.00;;;;;;5017804;28;20467;-80
2023/10/06 02:15:11;;;;;;;28.67;7.03;;;11.30;1.00;;;;;;5013168;28;20463;-80
2023/10/06 02:17:41;;;;;;;18.37;5.17;;;8.00;1.00;;;;;;5014310;28;20415;-81
2023/10/06 02:20:30;;;;;;;45.47;21.90;;;11.10;1.00;;;;;;5021277;28;20988;-81
2023/10/06 02:23:13;;;;;;;24.83;7.00;;;8.10;1.00;;;;;;5031974;28;20407;-81
2023/10/06 02:25:39;;;;;;;20.33;6.47;;;8.00;1.00;;;;;;5032817;28;20837;-81
2023/10/06 02:28:23;;;;;;;16.53;5.90;;;8.00;1.00;;;;;;5019561;28;21016;-81
2023/10/06 02:30:51;;;;;;;13.00;5.03;;;8.10;1.00;;;;;;5021378;28;20463;-81
2023/10/06 02:36:47;;;;;;;13.63;5.13;;;8.00;1.00;;;;;;5017678;28;20968;-80
2023/10/06 02:39:33;;;;;;;19.13;7.40;;;8.00;1.00;;;;;;5024878;28;20445;-81
2023/10/06 02:42:33;;;;;;;15.47;4.70;;;8.00;1.00;;;;;;5021179;28;20439;-81
2023/10/06 02:45:37;;;;;;;14.60;4.97;;;7.90;1.00;;;;;;5011933;28;20818;-81
2023/10/06 02:48:22;;;;;;;8.27;5.30;;;7.90;1.00;;;;;;5011943;28;20451;-81
2023/10/06 02:50:56;;;;;;;25.43;6.23;;;8.00;1.00;;;;;;5016735;28;20470;-80
2023/10/06 02:53:23;;;;;;;13.70;6.30;;;8.00;1.00;;;;;;5016033;28;20447;-81
2023/10/06 02:55:55;;;;;;;10.77;5.03;;;7.80;1.00;;;;;;5022191;28;20414;-81
2023/10/06 02:58:35;;;;;;;18.07;5.70;;;7.80;1.00;;;;;;5019036;28;20435;-81
2023/10/06 03:01:03;;;;;;;23.50;6.87;;;7.80;1.00;;;;;;5023932;28;20438;-81
2023/10/06 03:03:33;;;;;;;11.17;5.83;;;7.80;1.00;;;;;;5010351;28;20435;-80
2023/10/06 03:06:23;;;;;;;18.53;6.60;;;7.90;1.00;;;;;;5002719;28;20565;-79
2023/10/06 03:08:54;;;;;;;20.90;6.70;;;7.80;1.00;;;;;;5012435;28;20435;-80
2023/10/06 03:11:25;;;;;;;10.83;5.67;;;7.80;1.00;;;;;;5027537;28;20969;-80
2023/10/06 03:14:24;;;;;;;27.07;7.63;;;7.90;1.00;;;;;;5016919;28;20992;-81
2023/10/06 03:17:09;;;;;;;12.03;6.07;;;7.70;1.00;;;;;;5014771;28;20470;-81
2023/10/06 03:23:24;;;;;;;164.57;38.57;;;7.80;1.00;;;;;;5019583;28;20406;-80
2023/10/06 03:25:53;;;;;;;13.17;5.90;;;7.80;1.00;;;;;;5011588;28;20937;-81
2023/10/06 03:28:23;;;;;;;13.10;6.60;;;7.80;1.00;;;;;;5016043;28;20475;-80
2023/10/06 03:30:49;;;;;;;147.20;56.67;;;7.70;1.00;;;;;;5021268;28;20463;-80
2023/10/06 03:33:19;;;;;;;19.20;6.17;;;7.70;1.00;;;;;;5014086;28;20443;-80
2023/10/06 03:35:59;;;;;;;55.10;21.00;;;7.90;1.00;;;;;;5014804;28;20427;-81
2023/10/06 03:41:32;;;;;;;29.57;7.83;;;7.70;1.00;;;;;;5022474;28;20773;-80
2023/10/06 03:44:25;;;;;;;14.03;6.83;;;7.70;1.00;;;;;;5003776;28;20189;-81
2023/10/06 03:47:08;;;;;;;25.53;7.23;;;7.70;1.00;;;;;;5026322;28;20430;-81
2023/10/06 03:49:37;;;;;;;67.60;34.97;;;7.70;1.00;;;;;;5024042;28;20429;-81
2023/10/06 03:52:09;;;;;;;19.70;7.97;;;7.70;1.00;;;;;;5023513;28;20827;-81
2023/10/06 03:54:36;;;;;;;30.53;9.20;;;8.10;1.00;;;;;;5019467;28;21066;-81
2023/10/06 03:57:05;;;;;;;21.70;7.10;;;8.20;1.00;;;;;;5026749;28;20786;-82
2023/10/06 03:59:35;;;;;;;16.70;7.83;;;7.70;1.00;;;;;;5010922;28;20973;-81
2023/10/06 04:02:05;;;;;;;24.53;8.50;;;7.80;1.00;;;;;;5010474;28;20430;-81
2023/10/06 04:04:49;;;;;;;16.33;7.27;;;7.70;1.00;;;;;;5017247;28;20464;-81
2023/10/06 04:07:19;;;;;;;25.83;8.70;;;7.80;1.70;;;;;;5006186;28;20441;-81
2023/10/06 04:09:49;;;;;;;22.07;7.00;;;7.80;1.00;;;;;;5013176;28;20432;-81
2023/10/06 04:12:29;;;;;;;117.80;47.50;;;7.80;2.90;;;;;;5019574;28;20463;-81
2023/10/06 04:15:05;;;;;;;34.20;7.70;;;7.90;2.30;;;;;;5014222;28;20506;-81
2023/10/06 04:17:41;;;;;;;22.80;7.70;;;7.90;1.40;;;;;;5008889;28;20914;-81
2023/10/06 04:20:13;;;;;;;20.50;7.93;;;7.90;1.40;;;;;;5022574;28;20450;-89
2023/10/06 04:22:42;;;;;;;39.33;13.17;;;8.00;1.00;;;;;;5006914;28;20468;-88
2023/10/06 04:25:38;;;;;;;19.33;8.00;;;8.00;1.00;;;;;;5011759;28;20468;-87
2023/10/06 04:28:16;;;;;;;28.60;8.97;;;8.00;1.00;;;;;;5027840;28;20444;-88
2023/10/06 04:30:54;;;;;;;24.30;6.50;;;8.00;1.00;;;;;;5013218;28;20463;-88
2023/10/06 04:33:25;;;;;;;19.23;7.50;;;8.00;1.00;;;;;;5030884;28;20517;-88
2023/10/06 04:36:01;;;;;;;24.03;7.37;;;7.90;1.00;;;;;;5016267;28;20495;-88
2023/10/06 04:38:29;;;;;;;25.37;7.00;;;7.80;1.00;;;;;;5016278;28;20435;-87
2023/10/06 04:40:59;;;;;;;28.47;8.27;;;8.00;1.00;;;;;;5014261;28;20550;-88
2023/10/06 04:43:26;;;;;;;21.67;6.77;;;11.20;1.20;;;;;;5019569;28;20453;-87
2023/10/06 04:45:55;;;;;;;19.23;8.40;;;11.30;1.00;;;;;;5012372;28;20531;-87
2023/10/06 04:48:23;;;;;;;18.30;7.57;;;10.20;1.00;;;;;;5013770;28;20530;-87
2023/10/06 04:50:55;;;;;;;17.87;7.60;;;7.90;1.00;;;;;;5024012;28;20471;-86
2023/10/06 04:53:36;;;;;;;20.43;6.20;;;10.70;1.00;;;;;;5023657;28;20450;-87
2023/10/06 04:56:07;;;;;;;23.30;8.70;;;7.90;1.00;;;;;;5021086;28;21000;-88
2023/10/06 04:58:38;;;;;;;22.83;8.70;;;7.80;1.00;;;;;;5014150;28;20436;-86
2023/10/06 05:01:47;;;;;;;69.83;29.43;;;7.80;1.00;;;;;;5021380;28;20431;-87
2023/10/06 05:04:47;;;;;;;17.80;6.03;;;7.80;1.00;;;;;;5020975;28;20436;-88
2023/10/06 05:07:17;;;;;;;20.00;7.60;;;7.90;1.00;;;;;;5006892;28;21042;-79
2023/10/06 05:09:47;;;;;;;73.63;28.07;;;8.00;1.00;;;;;;5022331;28;20424;-80
2023/10/06 05:12:17;;;;;;;20.13;6.73;;;7.90;1.00;;;;;;5011634;28;20967;-80
2023/10/06 05:18:24;;;;;;;20.57;6.87;;;7.90;1.00;;;;;;5000334;28;20986;-80
2023/10/06 05:21:01;;;;;;;37.63;6.10;;;7.90;1.00;;;;;;5011462;28;20436;-81
2023/10/06 05:23:29;;;;;;;24.83;7.40;;;7.90;1.00;;;;;;5028081;28;20439;-86
2023/10/06 05:26:02;;;;;;;21.17;5.13;;;8.00;1.00;;;;;;5014759;28;20780;-82
2023/10/06 05:28:31;;;;;;;26.43;10.90;;;8.10;1.00;;;;;;5000492;28;20996;-82
2023/10/06 05:31:07;;;;;;;32.00;7.00;;;8.00;1.00;;;;;;5014223;28;20474;-82
2023/10/06 05:37:12;;;;;;;22.07;6.60;;;7.90;1.00;;;;;;5013589;28;20418;-81
2023/10/06 05:39:47;;;;;;;10.37;5.30;;;8.00;1.00;;;;;;5017915;28;20463;-82
2023/10/06 05:45:34;;;;;;;27.37;8.03;;;7.90;1.00;;;;;;5030260;28;20402;-82
2023/10/06 05:48:20;;;;;;;20.47;8.40;;;8.20;1.00;;;;;;5034303;28;20391;-81
2023/10/06 05:51:03;;;;;;;30.53;9.67;;;8.00;1.00;;;;;;5025995;28;20204;-80
2023/10/06 05:53:34;;;;;;;23.43;7.93;;;7.90;1.00;;;;;;5010702;28;20435;-82
2023/10/06 05:56:06;;;;;;;32.50;10.23;;;8.00;1.00;;;;;;5010739;28;20500;-81
2023/10/06 05:58:43;;;;;;;23.67;8.33;;;8.00;1.00;;;;;;5011286;28;20519;-80
2023/10/06 06:04:38;;;;;;;16.10;5.70;;;8.10;1.00;;;;;;5015315;28;20414;-80
2023/10/06 06:07:08;;;;;;;14.20;6.23;;;8.00;1.00;;;;;;5014015;28;20439;-82
2023/10/06 06:09:35;;;;;;;27.77;8.03;;;8.00;1.00;;;;;;5014197;28;20451;-81
2023/10/06 06:12:05;;;;;;;15.67;8.07;;;8.10;1.00;;;;;;5025281;28;20974;-81
2023/10/06 06:14:32;;;;;;;18.00;6.40;;;8.10;1.80;;;;;;5013873;28;20638;-82
2023/10/06 06:17:05;;;;;;;15.13;6.60;;;8.20;1.40;;;;;;5015192;28;20478;-82
2023/10/06 06:20:14;;;;;;;21.17;6.60;;;8.30;1.60;;;;;;5016757;28;20493;-82
2023/10/06 06:22:42;;;;;;;17.47;7.40;;;8.40;1.00;;;;;;5010071;28;20456;-81
2023/10/06 06:25:42;;;;;;;20.67;7.07;;;8.60;1.00;;;;;;5008217;28;20416;-80
2023/10/06 06:28:17;;;;;;;17.10;6.80;;;8.60;1.00;;;;;;5013220;28;20431;-81
2023/10/06 06:30:53;;;;;;;14.40;6.17;;;8.70;1.00;;;;;;5026484;28;20790;-81
2023/10/06 06:33:59;;;;;;;18.33;6.37;;;8.90;1.50;;;;;;5029757;28;20881;-81
2023/10/06 06:36:35;;;;;;;18.00;6.67;;;8.90;1.80;;;;;;5004128;28;20403;-81
2023/10/06 06:39:17;;;;;;;22.30;7.47;;;8.90;4.00;;;;;;5018619;28;20399;-80
2023/10/06 06:49:05;;;;;;;23.37;5.70;;;9.30;8.20;;;;;;5030585;28;20465;-81
2023/10/06 06:51:41;;;;;;;14.77;6.97;;;9.60;5.10;;;;;;5012948;28;20463;-82
2023/10/06 06:54:23;;;;;;;19.07;7.43;;;9.70;7.50;;;;;;5013310;28;20751;-82
2023/10/06 06:57:12;;;;;;;15.83;6.50;;;10.10;7.00;;;;;;5008786;28;20474;-83
2023/10/06 06:59:53;;;;;;;12.60;6.87;;;9.90;6.50;;;;;;5021131;28;20416;-83
2023/10/06 07:02:42;;;;;;;16.93;7.20;;;10.10;4.60;;;;;;5013266;28;20501;-83
2023/10/06 07:05:41;;;;;;;18.37;6.47;;;10.20;4.20;;;;;;5017385;28;20422;-84
2023/10/06 07:08:24;;;;;;;20.97;7.27;;;10.30;2.30;;;;;;5022180;28;20458;-84
2023/10/06 07:14:14;;;;;;;28.07;6.70;;;;;;;;;;5033940;28;20395;-84
2023/10/06 07:16:43;;;;;;;24.50;6.70;;;10.70;1.00;;;;;;5017520;28;20419;-84
2023/10/06 07:19:23;;;;;;;34.37;7.83;;;10.70;1.00;;;;;;5035821;28;20465;-84
2023/10/06 07:21:53;;;;;;;16.33;6.17;;;11.00;1.00;;;;;;5035308;28;20432;-83
2023/10/06 07:24:55;;;;;;;18.93;7.03;;;11.00;1.00;;;;;;5026331;28;20462;-83
2023/10/06 07:27:21;;;;;;;46.50;26.77;;;11.10;1.00;;;;;;5030394;28;20532;-85
2023/10/06 07:30:41;;;;;;;33.23;8.80;;;11.20;1.00;;;;;;5035961;28;20429;-78
2023/10/06 07:33:52;;;;;;;16.13;6.90;;;11.40;1.00;;;;;;5021051;28;20492;-79
2023/10/06 07:36:17;;;;;;;35.73;7.83;;;11.60;1.00;;;;;;5020488;28;20457;-84
2023/10/06 07:42:16;;;;;;;22.03;8.27;;;11.80;1.00;;;;;;4996860;28;20548;-82
2023/10/06 07:44:54;;;;;;;24.90;7.33;;;11.80;1.00;;;;;;5011983;28;20416;-83
2023/10/06 07:47:44;;;;;;;30.47;9.23;;;11.90;1.00;;;;;;4995539;28;20895;-83
2023/10/06 07:50:17;;;;;;;26.57;13.23;;;12.00;1.00;;;;;;5025139;28;20435;-82
2023/10/06 07:53:11;;;;;;;22.47;9.10;;;12.10;1.00;;;;;;5017177;28;20457;-81
2023/10/06 07:58:58;;;;;;;36.57;8.10;;;12.50;1.00;;;;;;5028822;28;20406;-82
2023/10/06 08:01:42;;;;;;;92.50;37.27;;;12.60;1.00;;;;;;5023094;28;20430;-84
2023/10/06 08:04:18;;;;;;;27.13;9.70;;;12.70;1.00;;;;;;5017921;28;20217;-85
2023/10/06 08:06:54;;;;;;;46.40;9.00;;;12.80;1.00;;;;;;5024599;28;20834;-83
2023/10/06 08:12:56;;;;;;;16.93;9.10;;;12.90;1.00;;;;;;5029620;28;20442;-82
2023/10/06 08:15:22;;;;;;;20.13;10.30;;;12.90;1.00;;;;;;5035594;28;20406;-81
2023/10/06 08:18:12;;;;;;;24.07;11.90;;;12.90;1.00;;;;;;5034451;28;20901;-82
2023/10/06 08:20:40;;;;;;;22.63;11.40;;;13.10;1.00;;;;;;5025765;28;20268;-82
2023/10/06 08:23:15;;;;;;;19.50;11.13;;;13.40;1.00;;;;;;5015582;28;20522;-81
2023/10/06 08:25:42;;;;;;;23.90;11.63;;;13.40;1.00;;;;;;5023435;28;20404;-81
2023/10/06 08:28:07;;;;;;;20.87;12.23;;;13.60;1.00;;;;;;5031779;28;20439;-81
2023/10/06 08:31:24;;;;;;;28.60;14.93;;;13.80;1.00;;;;;;5013302;28;20446;-81
2023/10/06 08:34:11;;;;;;;25.07;11.57;;;14.00;1.00;;;;;;5003769;28;20184;-81
2023/10/06 08:37:11;;;;;;;76.67;50.17;;;14.20;1.00;;;;;;5016979;28;20910;-81
2023/10/06 08:40:07;;;;;;;23.17;10.50;;;14.50;1.00;;;;;;5012342;28;20410;-81
2023/10/06 08:42:59;;;;;;;120.93;68.23;;;14.50;1.00;;;;;;5015027;28;20502;-81
2023/10/06 08:45:47;;;;;;;29.30;11.33;;;14.80;1.00;;;;;;5032423;28;20418;-81
2023/10/06 08:48:41;;;;;;;22.00;11.00;;;14.90;1.00;;;;;;5009240;28;20428;-81
2023/10/06 08:51:35;;;;;;;40.57;17.27;;;15.10;1.00;;;;;;5013494;28;20517;-81
2023/10/06 08:54:04;;;;;;;29.90;14.97;;;15.20;1.00;;;;;;5015099;28;20398;-81
2023/10/06 08:56:46;;;;;;;21.60;11.57;;;15.20;1.00;;;;;;5007219;28;20407;-82
2023/10/06 08:59:33;;;;;;;22.00;10.40;;;15.30;1.00;;;;;;5018894;28;20427;-82
2023/10/06 09:02:11;;;;;;;36.63;26.10;;;15.30;1.00;;;;;;5012667;28;20399;-82
2023/10/06 09:05:11;;;;;;;25.33;10.30;;;15.30;1.00;;;;;;5022126;28;20396;-81
2023/10/06 09:08:11;;;;;;;21.77;9.83;;;15.30;1.00;;;;;;5034172;28;20420;-81
2023/10/06 09:10:59;;;;;;;35.77;24.90;;;15.10;1.00;;;;;;5017287;28;20487;-82
2023/10/06 09:13:39;;;;;;;19.33;8.43;;;15.20;1.00;;;;;;5028436;28;20419;-82
2023/10/06 09:16:11;;;;;;;25.67;8.17;;;15.20;1.00;;;;;;5028932;28;20411;-82
2023/10/06 09:18:41;;;;;;;19.13;8.60;;;15.20;1.00;;;;;;5010948;28;20427;-81
2023/10/06 09:21:13;;;;;;;16.33;8.83;;;15.30;1.00;;;;;;5015725;28;20410;-81
2023/10/06 09:23:43;;;;;;;16.40;8.30;;;15.30;1.00;;;;;;5001764;28;20456;-81
2023/10/06 09:26:41;;;;;;;16.40;8.43;;;15.40;1.00;;;;;;4993657;28;20475;-82
2023/10/06 09:29:09;;;;;;;18.73;7.63;;;15.40;1.00;;;;;;5013825;28;20423;-82
2023/10/06 09:31:44;;;;;;;30.93;15.80;;;15.50;1.00;;;;;;5019286;28;20449;-82
2023/10/06 09:34:11;;;;;;;13.57;7.03;;;15.30;1.00;;;;;;5031569;28;20420;-82
2023/10/06 09:37:11;;;;;;;17.17;8.10;;;15.50;1.00;;;;;;5014338;28;20405;-82
2023/10/06 09:39:45;;;;;;;18.17;7.40;;;15.50;1.00;;;;;;5014296;28;20511;-82
2023/10/06 09:42:43;;;;;;;21.40;8.10;;;15.60;1.00;;;;;;5014189;28;21008;-82
2023/10/06 09:45:42;;;;;;;16.80;8.00;;;15.60;1.00;;;;;;5012742;28;20399;-82
2023/10/06 09:48:33;;;;;;;14.33;7.50;;;15.60;1.00;;;;;;5013373;28;20437;-83
2023/10/06 09:51:12;;;;;;;15.93;7.97;;;15.80;1.00;;;;;;5013290;28;20454;-83
2023/10/06 09:53:44;;;;;;;39.50;25.03;;;15.80;1.00;;;;;;5017061;28;20412;-83
2023/10/06 09:56:41;;;;;;;15.27;7.33;;;15.90;1.00;;;;;;5018032;28;20444;-82
2023/10/06 09:59:12;;;;;;;23.70;9.43;;;16.00;1.00;;;;;;5017101;28;20395;-82
2023/10/06 10:01:42;;;;;;;22.83;12.13;;;16.00;1.00;;;;;;5011742;28;20412;-82
2023/10/06 10:04:41;;;;;;;84.60;60.27;;;15.90;1.00;;;;;;5021889;28;20735;-83
2023/10/06 10:07:12;;;;;;;21.37;8.80;;;16.00;1.00;;;;;;5014123;28;20403;-82
2023/10/06 10:09:39;;;;;;;19.60;8.23;;;16.10;1.00;;;;;;5013309;28;20426;-84
2023/10/06 10:16:11;;;;;;;28.13;9.50;;;16.10;1.00;;;;;;5011034;28;20387;-83
2023/10/06 10:19:12;;;;;;;21.87;7.57;;;16.30;1.00;;;;;;4995657;28;20525;-83
2023/10/06 10:21:42;;;;;;;19.33;6.97;;;16.20;1.00;;;;;;5012228;28;20428;-84
2023/10/06 10:24:15;;;;;;;16.53;7.67;;;16.20;1.00;;;;;;4995505;28;20408;-83
2023/10/06 10:26:47;;;;;;;15.10;6.50;;;16.20;1.00;;;;;;5026461;28;20929;-83
2023/10/06 10:29:13;;;;;;;18.80;7.17;;;16.40;1.00;;;;;;5031021;28;20424;-89
2023/10/06 10:35:23;;;;;;;13.37;6.40;;;16.60;1.00;;;;;;5003896;28;20205;-82
2023/10/06 10:38:11;;;;;;;11.37;6.20;;;16.70;1.00;;;;;;5014246;28;20454;-82
2023/10/06 10:41:07;;;;;;;14.80;5.50;;;16.90;1.00;;;;;;4999958;28;20425;-80
2023/10/06 10:43:45;;;;;;;10.23;5.87;;;17.00;1.00;;;;;;5006901;28;20398;-82
2023/10/06 10:46:14;;;;;;;10.17;5.20;;;17.00;1.00;;;;;;4998276;28;20510;-85
2023/10/06 10:48:49;;;;;;;18.53;4.73;;;17.20;1.00;;;;;;5004529;28;20393;-85
2023/10/06 10:51:55;;;;;;;14.20;3.77;;;17.10;1.00;;;;;;5033478;28;20549;-81
2023/10/06 10:54:33;;;;;;;18.23;4.27;;;17.10;1.00;;;;;;5028213;28;20412;-78
2023/10/06 10:57:21;;;;;;;8.87;4.43;;;17.20;1.00;;;;;;5015718;28;20411;-76
2023/10/06 11:03:00;;;;;;;10.17;3.37;;;17.30;1.00;;;;;;5021081;28;20789;-80
2023/10/06 11:06:12;;;;;;;9.97;3.10;;;17.30;1.00;;;;;;5025759;28;20442;-80
2023/10/06 11:12:34;;;;;;;12.43;3.50;;;17.50;1.00;;;;;;4997267;28;20846;-80
2023/10/06 11:15:14;;;;;;;4.83;2.87;;;17.70;1.00;;;;;;5004674;28;20458;-81
2023/10/06 11:17:44;;;;;;;8.40;3.60;;;17.80;1.00;;;;;;5023028;28;20900;-79
2023/10/06 11:20:27;;;;;;;6.03;3.00;;;17.90;1.00;;;;;;5007467;28;20429;-81
2023/10/06 11:23:11;;;;;;;18.57;4.90;;;18.00;1.00;;;;;;5026929;28;20458;-80
2023/10/06 11:29:00;;;;;;;8.43;4.03;;;;;;;;;;5010234;28;20846;-87
2023/10/06 11:31:29;;;;;;;11.03;3.40;;;17.70;1.00;;;;;;5033495;28;20494;-84
2023/10/06 11:33:58;;;;;;;13.23;3.50;;;17.70;1.00;;;;;;5026913;28;20409;-85
2023/10/06 11:36:37;;;;;;;46.77;8.10;;;17.80;1.00;;;;;;5001365;28;20793;-85
2023/10/06 11:39:03;;;;;;;16.10;3.73;;;17.90;1.00;;;;;;5020217;28;21002;-85
2023/10/06 11:41:29;;;;;;;14.20;4.00;;;17.90;1.00;;;;;;5027640;28;20442;-85
2023/10/06 11:44:07;;;;;;;9.80;3.90;;;18.10;1.00;;;;;;5018308;28;20986;-86
2023/10/06 11:47:02;;;;;;;13.03;3.63;;;18.20;1.00;;;;;;5035373;28;20400;-85
2023/10/06 11:49:55;;;;;;;4.83;2.70;;;18.30;1.00;;;;;;4974668;28;20404;-83
2023/10/06 11:52:24;;;;;;;8.83;3.27;;;18.40;1.00;;;;;;4972458;28;20535;-83
2023/10/06 11:54:51;;;;;;;52.57;28.43;;;18.20;1.00;;;;;;4972445;28;20547;-80
2023/10/06 11:57:19;;;;;;;10.13;3.70;;;18.30;1.00;;;;;;4974822;28;20451;-80
2023/10/06 12:00:12;;;;;;;7.70;2.87;;;18.50;1.00;;;;;;4983690;28;20532;-79
2023/10/06 12:02:50;;;;;;;80.00;52.37;;;18.60;1.00;;;;;;4973085;28;20974;-79
2023/10/06 12:05:19;;;;;;;87.00;77.67;;;18.70;1.00;;;;;;4986272;28;20515;-79
2023/10/06 12:08:03;;;;;;;214.67;150.30;;;18.90;1.00;;;;;;4979406;28;20474;-79
2023/10/06 12:11:03;;;;;;;27.10;18.90;;;18.90;1.00;;;;;;4979706;28;20892;-85
2023/10/06 12:13:41;;;;;;;36.50;32.40;;;19.00;1.00;;;;;;4925149;29;20518;-83
2023/10/06 12:16:29;;;;;;;47.00;40.67;;;18.80;1.00;;;;;;4915252;29;20530;-83
2023/10/06 12:19:44;;;;;;;11.30;3.30;;;19.00;1.00;;;;;;4926081;29;20530;-84
2023/10/06 12:22:12;;;;;;;92.10;82.07;;;19.00;1.00;;;;;;4917898;29;20448;-83
2023/10/06 12:24:45;;;;;;;65.23;58.87;;;19.20;1.00;;;;;;4911979;29;20801;-83
2023/10/06 12:27:17;;;;;;;6.23;2.60;;;19.30;1.00;;;;;;4960094;28;20518;-84
2023/10/06 12:29:44;;;;;;;13.90;3.50;;;19.30;1.00;;;;;;4957596;28;20882;-84
2023/10/06 12:32:12;;;;;;;8.30;3.60;;;19.40;1.00;;;;;;4941156;29;20471;-84
2023/10/06 12:34:43;;;;;;;10.90;4.03;;;19.40;1.00;;;;;;4940473;29;20440;-83
2023/10/06 12:37:11;;;;;;;12.37;6.80;;;19.30;1.00;;;;;;4947565;29;20441;-83
2023/10/06 12:39:59;;;;;;;49.90;34.53;;;19.20;1.00;;;;;;4939475;28;20493;-84
2023/10/06 12:42:45;;;;;;;17.93;16.20;;;19.30;1.00;;;;;;4938897;28;20801;-85
2023/10/06 12:45:17;;;;;;;17.07;4.87;;;19.50;1.00;;;;;;4949677;29;20524;-85
2023/10/06 12:47:47;;;;;;;8.90;3.13;;;19.50;1.00;;;;;;4932207;29;20412;-85
2023/10/06 12:50:41;;;;;;;12.50;4.43;;;19.50;1.00;;;;;;5018126;28;20456;-85
2023/10/06 12:53:11;;;;;;;12.60;3.97;;;19.50;1.00;;;;;;5006264;28;20444;-84
2023/10/06 12:55:41;;;;;;;14.83;5.17;;;19.50;1.00;;;;;;5015489;28;20437;-85
2023/10/06 12:58:11;;;;;;;10.50;3.67;;;19.40;1.00;;;;;;5016964;28;20462;-79
2023/10/06 13:00:42;;;;;;;39.90;12.00;;;19.60;1.00;;;;;;5013413;28;20782;-82
2023/10/06 13:03:17;;;;;;;11.80;3.23;;;19.70;1.00;;;;;;5020181;28;20399;-83
2023/10/06 13:06:13;;;;;;;9.67;3.50;;;19.50;1.00;;;;;;5013327;28;20424;-83
2023/10/06 13:08:42;;;;;;;17.60;5.10;;;19.50;1.00;;;;;;5013766;28;20475;-81
2023/10/06 13:11:11;;;;;;;16.70;6.30;;;19.50;1.00;;;;;;5022875;28;20448;-80
2023/10/06 13:13:37;;;;;;;16.87;4.37;;;19.50;1.00;;;;;;5014139;28;20383;-79
2023/10/06 13:16:08;;;;;;;20.07;3.60;;;19.40;1.00;;;;;;5016487;28;20420;-79
2023/10/06 13:18:36;;;;;;;15.93;3.87;;;19.50;1.00;;;;;;5022438;28;20177;-79
2023/10/06 13:21:42;;;;;;;11.57;3.20;;;19.50;1.00;;;;;;5024184;28;20412;-79
2023/10/06 13:24:13;;;;;;;8.40;3.10;;;19.70;1.00;;;;;;4999928;28;20988;-79
2023/10/06 13:27:11;;;;;;;8.60;3.07;;;19.70;1.00;;;;;;5008333;28;20432;-84
2023/10/06 13:29:47;;;;;;;9.13;3.40;;;19.80;1.00;;;;;;5009894;28;20473;-86
2023/10/06 13:36:35;;;;;;;9.93;3.40;;;20.00;1.00;;;;;;5004667;28;20826;-87
2023/10/06 13:39:25;;;;;;;9.73;4.03;;;20.10;1.00;;;;;;5024228;28;20426;-87
2023/10/06 13:41:54;;;;;;;8.20;3.97;;;20.20;1.00;;;;;;5013892;28;20516;-80
2023/10/06 13:44:23;;;;;;;13.90;5.07;;;20.30;1.00;;;;;;5017435;28;20754;-77
2023/10/06 13:46:54;;;;;;;9.10;3.30;;;20.20;1.00;;;;;;5029205;28;20424;-77
2023/10/06 13:49:20;;;;;;;7.73;3.40;;;20.20;1.00;;;;;;5023635;28;20424;-80
2023/10/06 13:51:47;;;;;;;6.37;2.73;;;20.30;1.00;;;;;;5014261;28;20494;-81
2023/10/06 13:54:23;;;;;;;9.87;2.90;;;20.40;1.00;;;;;;5013449;28;20396;-80
2023/10/06 13:56:50;;;;;;;9.93;3.27;;;20.80;1.00;;;;;;5008180;28;20543;-81
2023/10/06 13:59:59;;;;;;;11.03;3.50;;;21.10;1.00;;;;;;5015852;28;21739;-84
2023/10/06 14:02:25;;;;;;;11.27;3.57;;;21.10;1.00;;;;;;5010928;28;20438;-80
2023/10/06 14:08:35;;;;;;;8.57;2.77;;;21.10;1.00;;;;;;5016089;28;20428;-80
2023/10/06 14:11:35;;;;;;;12.03;3.60;;;21.20;1.00;;;;;;5015782;28;20465;-79
2023/10/06 14:14:24;;;;;;;20.80;5.47;;;21.20;1.00;;;;;;5014146;28;20465;-82
2023/10/06 14:17:31;;;;;;;9.50;3.10;;;21.30;1.00;;;;;;5013250;28;20503;-82
2023/10/06 14:20:56;;;;;;;19.83;4.60;;;21.20;1.00;;;;;;5012956;28;20434;-83
2023/10/06 14:23:54;;;;;;;14.10;2.83;;;21.10;1.00;;;;;;5012728;28;20424;-83
2023/10/06 14:26:30;;;;;;;15.57;3.87;;;20.90;1.00;;;;;;5008933;28;20431;-82
2023/10/06 14:29:05;;;;;;;14.13;4.40;;;20.90;1.00;;;;;;5005984;28;20447;-84
2023/10/06 14:31:37;;;;;;;9.70;3.07;;;20.90;1.00;;;;;;5027447;28;20468;-84
2023/10/06 14:34:57;;;;;;;8.07;2.90;;;21.00;1.00;;;;;;5011499;28;20423;-84
2023/10/06 14:37:13;;;;;;;10.63;3.60;;;20.80;1.00;;;;;;4989174;28;20420;-85
2023/10/06 14:46:07;;;;;;;5.47;2.77;;;21.00;1.00;;;;;;5016714;28;20445;-83
2023/10/06 14:49:23;;;;;;;7.80;3.13;;;20.90;1.00;;;;;;5027267;28;20424;-87
2023/10/06 14:55:10;;;;;;;10.37;3.43;;;21.00;1.00;;;;;;5012268;28;20436;-86
2023/10/06 14:58:05;;;;;;;7.10;2.90;;;21.20;1.00;;;;;;5022566;28;20900;-87
2023/10/06 15:00:35;;;;;;;15.57;3.10;;;21.10;1.00;;;;;;5018410;28;20187;-87
2023/10/06 15:03:16;;;;;;;8.97;2.90;;;21.00;1.00;;;;;;5020540;28;20954;-87
2023/10/06 15:05:48;;;;;;;6.80;2.80;;;21.00;1.00;;;;;;5013055;28;20893;-86
2023/10/06 15:08:36;;;;;;;12.23;2.97;;;21.20;1.00;;;;;;5012511;28;20416;-86
2023/10/06 15:11:18;;;;;;;10.13;3.17;;;21.40;1.00;;;;;;4998941;28;20451;-87
2023/10/06 15:14:13;;;;;;;10.57;2.90;;;21.60;1.00;;;;;;5008740;28;20419;-81
2023/10/06 15:16:54;;;;;;;7.80;2.67;;;21.80;1.00;;;;;;5027632;28;20439;-81
2023/10/06 15:19:34;;;;;;;8.83;2.57;;;21.80;1.00;;;;;;5026940;28;20465;-81